sensor_id;sensor_type;location;lat;lon;timestamp;pressure;altitude;pressure_sealevel;temperature;humidity
43804;BME280;29430;52.924;-2.388;2023-02-03T00:01:50;100185.97;;;9.03;97.16
43804;BME280;29430;52.924;-2.388;2023-02-03T00:06:41;100184.94;;;9.04;96.90
43804;BME280;29430;52.924;-2.388;2023-02-03T00:11:33;100178.28;;;9.06;96.82
43804;BME280;29430;52.924;-2.388;2023-02-03T00:16:25;100173.53;;;9.08;96.24
43804;BME280;29430;52.924;-2.388;2023-02-03T00:21:17;100157.28;;;9.08;96.30
43804;BME280;29430;52.924;-2.388;2023-02-03T00:26:11;100150.81;;;9.09;96.58
43804;BME280;29430;52.924;-2.388;2023-02-03T00:31:03;100150.81;;;9.09;96.06
43804;BME280;29430;52.924;-2.388;2023-02-03T00:35:55;100141.06;;;9.08;95.70
43804;BME280;29430;52.924;-2.388;2023-02-03T00:40:52;100148.97;;;9.10;95.67
43804;BME280;29430;52.924;-2.388;2023-02-03T00:45:43;100144.78;;;9.07;95.72
43804;BME280;29430;52.924;-2.388;2023-02-03T00:50:35;100155.84;;;9.12;95.92
43804;BME280;29430;52.924;-2.388;2023-02-03T00:55:27;100154.63;;;9.15;96.21
43804;BME280;29430;52.924;-2.388;2023-02-03T01:00:19;100155.44;;;9.16;95.92
43804;BME280;29430;52.924;-2.388;2023-02-03T01:05:11;100152.75;;;9.16;95.63
43804;BME280;29430;52.924;-2.388;2023-02-03T01:10:03;100163.38;;;9.17;95.73
43804;BME280;29430;52.924;-2.388;2023-02-03T01:14:55;100179.59;;;9.17;95.90
43804;BME280;29430;52.924;-2.388;2023-02-03T01:19:47;100173.16;;;9.18;96.40
43804;BME280;29430;52.924;-2.388;2023-02-03T01:24:40;100180.47;;;9.18;96.76
43804;BME280;29430;52.924;-2.388;2023-02-03T01:29:32;100182.97;;;9.19;96.71
43804;BME280;29430;52.924;-2.388;2023-02-03T01:34:24;100198.16;;;9.20;97.36
43804;BME280;29430;52.924;-2.388;2023-02-03T01:39:15;100186.94;;;9.23;97.55
43804;BME280;29430;52.924;-2.388;2023-02-03T01:44:40;100183.59;;;9.21;97.40
43804;BME280;29430;52.924;-2.388;2023-02-03T01:49:34;100197.13;;;9.21;97.66
43804;BME280;29430;52.924;-2.388;2023-02-03T01:54:32;100198.63;;;9.24;97.67
43804;BME280;29430;52.924;-2.388;2023-02-03T01:59:25;100182.19;;;9.25;97.86
43804;BME280;29430;52.924;-2.388;2023-02-03T02:04:19;100180.31;;;9.26;97.65
43804;BME280;29430;52.924;-2.388;2023-02-03T02:09:13;100190.94;;;9.27;97.19
43804;BME280;29430;52.924;-2.388;2023-02-03T02:14:06;100187.19;;;9.28;97.24
43804;BME280;29430;52.924;-2.388;2023-02-03T02:24:31;100175.31;;;9.29;96.37
43804;BME280;29430;52.924;-2.388;2023-02-03T02:44:52;100166.19;;;9.30;95.90
43804;BME280;29430;52.924;-2.388;2023-02-03T02:50:02;100166.19;;;9.30;96.67
43804;BME280;29430;52.924;-2.388;2023-02-03T02:54:58;100169.91;;;9.29;96.27
43804;BME280;29430;52.924;-2.388;2023-02-03T02:59:53;100173.00;;;9.26;96.93
43804;BME280;29430;52.924;-2.388;2023-02-03T03:04:46;100180.09;;;9.27;96.53
43804;BME280;29430;52.924;-2.388;2023-02-03T03:09:59;100195.72;;;9.25;96.75
43804;BME280;29430;52.924;-2.388;2023-02-03T03:14:55;100212.16;;;9.24;96.84
43804;BME280;29430;52.924;-2.388;2023-02-03T03:19:55;100214.00;;;9.23;96.00
43804;BME280;29430;52.924;-2.388;2023-02-03T03:25:05;100221.50;;;9.21;96.67
43804;BME280;29430;52.924;-2.388;2023-02-03T03:30:03;100229.63;;;9.21;97.18
43804;BME280;29430;52.924;-2.388;2023-02-03T03:34:56;100232.31;;;9.21;97.66
43804;BME280;29430;52.924;-2.388;2023-02-03T03:39:54;100235.66;;;9.23;97.80
43804;BME280;29430;52.924;-2.388;2023-02-03T03:44:56;100237.97;;;9.26;97.62
43804;BME280;29430;52.924;-2.388;2023-02-03T03:49:49;100241.53;;;9.27;97.89
43804;BME280;29430;52.924;-2.388;2023-02-03T03:54:42;100254.00;;;9.28;98.32
43804;BME280;29430;52.924;-2.388;2023-02-03T03:59:38;100250.47;;;9.27;98.23
43804;BME280;29430;52.924;-2.388;2023-02-03T04:04:33;100260.28;;;9.28;98.31
43804;BME280;29430;52.924;-2.388;2023-02-03T04:09:28;100259.63;;;9.26;98.49
43804;BME280;29430;52.924;-2.388;2023-02-03T04:14:19;100272.53;;;9.24;98.45
43804;BME280;29430;52.924;-2.388;2023-02-03T04:19:11;100272.53;;;9.24;99.34
43804;BME280;29430;52.924;-2.388;2023-02-03T04:24:03;100269.00;;;9.24;98.60
43804;BME280;29430;52.924;-2.388;2023-02-03T04:28:55;100278.78;;;9.25;99.26
43804;BME280;29430;52.924;-2.388;2023-02-03T04:33:47;100266.28;;;9.24;99.18
43804;BME280;29430;52.924;-2.388;2023-02-03T04:38:38;100287.09;;;9.23;99.94
43804;BME280;29430;52.924;-2.388;2023-02-03T04:43:30;100280.00;;;9.22;99.71
43804;BME280;29430;52.924;-2.388;2023-02-03T04:48:22;100298.78;;;9.24;99.93
43804;BME280;29430;52.924;-2.388;2023-02-03T04:53:13;100303.13;;;9.25;99.69
43804;BME280;29430;52.924;-2.388;2023-02-03T04:58:07;100316.47;;;9.26;99.70
43804;BME280;29430;52.924;-2.388;2023-02-03T05:02:59;100324.19;;;9.29;100.00
43804;BME280;29430;52.924;-2.388;2023-02-03T05:07:51;100324.19;;;9.29;99.30
43804;BME280;29430;52.924;-2.388;2023-02-03T05:12:42;100321.31;;;9.31;99.65
43804;BME280;29430;52.924;-2.388;2023-02-03T05:17:34;100325.06;;;9.30;99.69
43804;BME280;29430;52.924;-2.388;2023-02-03T05:22:30;100334.00;;;9.30;99.58
43804;BME280;29430;52.924;-2.388;2023-02-03T05:27:22;100334.84;;;9.31;99.66
43804;BME280;29430;52.924;-2.388;2023-02-03T05:32:14;100346.91;;;9.28;99.04
43804;BME280;29430;52.924;-2.388;2023-02-03T05:37:06;100327.09;;;9.28;99.29
43804;BME280;29430;52.924;-2.388;2023-02-03T05:41:57;100344.41;;;9.27;99.76
43804;BME280;29430;52.924;-2.388;2023-02-03T05:46:51;100347.94;;;9.27;100.00
43804;BME280;29430;52.924;-2.388;2023-02-03T05:51:43;100354.38;;;9.26;100.00
43804;BME280;29430;52.924;-2.388;2023-02-03T05:56:35;100347.28;;;9.25;100.00
43804;BME280;29430;52.924;-2.388;2023-02-03T06:01:27;100352.91;;;9.24;100.00
43804;BME280;29430;52.924;-2.388;2023-02-03T06:06:19;100351.84;;;9.25;100.00
43804;BME280;29430;52.924;-2.388;2023-02-03T06:11:11;100363.53;;;9.25;100.00
43804;BME280;29430;52.924;-2.388;2023-02-03T06:16:03;100371.47;;;9.27;100.00
43804;BME280;29430;52.924;-2.388;2023-02-03T06:20:55;100370.59;;;9.26;100.00
43804;BME280;29430;52.924;-2.388;2023-02-03T06:25:47;100375.38;;;9.24;100.00
43804;BME280;29430;52.924;-2.388;2023-02-03T06:30:39;100377.91;;;9.26;100.00
43804;BME280;29430;52.924;-2.388;2023-02-03T06:35:31;100383.13;;;9.27;100.00
43804;BME280;29430;52.924;-2.388;2023-02-03T06:40:23;100387.50;;;9.28;100.00
43804;BME280;29430;52.924;-2.388;2023-02-03T06:45:16;100405.88;;;9.33;100.00
43804;BME280;29430;52.924;-2.388;2023-02-03T06:50:10;100407.09;;;9.30;100.00
43804;BME280;29430;52.924;-2.388;2023-02-03T06:55:03;100414.84;;;9.34;100.00
43804;BME280;29430;52.924;-2.388;2023-02-03T06:59:55;100405.88;;;9.33;100.00
43804;BME280;29430;52.924;-2.388;2023-02-03T07:04:47;100403.19;;;9.33;100.00
43804;BME280;29430;52.924;-2.388;2023-02-03T07:09:39;100409.41;;;9.34;100.00
43804;BME280;29430;52.924;-2.388;2023-02-03T07:14:31;100427.34;;;9.35;100.00
43804;BME280;29430;52.924;-2.388;2023-02-03T07:19:24;100422.75;;;9.35;100.00
43804;BME280;29430;52.924;-2.388;2023-02-03T07:24:16;100449.47;;;9.38;100.00
43804;BME280;29430;52.924;-2.388;2023-02-03T07:29:08;100446.56;;;9.40;100.00
43804;BME280;29430;52.924;-2.388;2023-02-03T07:34:00;100469.03;;;9.40;100.00
43804;BME280;29430;52.924;-2.388;2023-02-03T07:38:51;100465.13;;;9.43;100.00
43804;BME280;29430;52.924;-2.388;2023-02-03T07:43:43;100471.19;;;9.45;100.00
43804;BME280;29430;52.924;-2.388;2023-02-03T07:48:35;100472.88;;;9.46;100.00
43804;BME280;29430;52.924;-2.388;2023-02-03T07:53:27;100467.44;;;9.46;100.00
43804;BME280;29430;52.924;-2.388;2023-02-03T07:58:18;100471.84;;;9.47;100.00
43804;BME280;29430;52.924;-2.388;2023-02-03T08:03:10;100483.69;;;9.46;100.00
43804;BME280;29430;52.924;-2.388;2023-02-03T08:08:02;100486.22;;;9.47;100.00
43804;BME280;29430;52.924;-2.388;2023-02-03T08:12:54;100498.72;;;9.48;100.00
43804;BME280;29430;52.924;-2.388;2023-02-03T08:17:48;100503.09;;;9.49;100.00
43804;BME280;29430;52.924;-2.388;2023-02-03T08:22:40;100515.81;;;9.49;100.00
43804;BME280;29430;52.924;-2.388;2023-02-03T08:27:32;100515.81;;;9.49;100.00
43804;BME280;29430;52.924;-2.388;2023-02-03T08:32:23;100523.94;;;9.49;100.00
43804;BME280;29430;52.924;-2.388;2023-02-03T08:37:18;100535.59;;;9.49;100.00
43804;BME280;29430;52.924;-2.388;2023-02-03T08:42:10;100541.19;;;9.48;100.00
43804;BME280;29430;52.924;-2.388;2023-02-03T08:47:02;100547.47;;;9.48;100.00
43804;BME280;29430;52.924;-2.388;2023-02-03T08:51:55;100542.06;;;9.48;100.00
43804;BME280;29430;52.924;-2.388;2023-02-03T08:56:47;100555.41;;;9.50;100.00
43804;BME280;29430;52.924;-2.388;2023-02-03T09:01:39;100573.69;;;9.48;100.00
43804;BME280;29430;52.924;-2.388;2023-02-03T09:06:31;100571.47;;;9.52;100.00
43804;BME280;29430;52.924;-2.388;2023-02-03T09:11:23;100570.41;;;9.53;100.00
43804;BME280;29430;52.924;-2.388;2023-02-03T09:16:17;100567.13;;;9.57;100.00
43804;BME280;29430;52.924;-2.388;2023-02-03T09:21:10;100571.16;;;9.61;100.00
43804;BME280;29430;52.924;-2.388;2023-02-03T09:26:14;100578.91;;;9.64;100.00
43804;BME280;29430;52.924;-2.388;2023-02-03T09:31:08;100577.69;;;9.67;100.00
43804;BME280;29430;52.924;-2.388;2023-02-03T09:36:01;100576.44;;;9.70;100.00
43804;BME280;29430;52.924;-2.388;2023-02-03T09:46:11;100584.09;;;9.81;100.00
43804;BME280;29430;52.924;-2.388;2023-02-03T09:51:18;100586.88;;;9.88;100.00
43804;BME280;29430;52.924;-2.388;2023-02-03T09:56:29;100582.19;;;9.96;100.00
43804;BME280;29430;52.924;-2.388;2023-02-03T10:01:24;100594.38;;;10.07;100.00
43804;BME280;29430;52.924;-2.388;2023-02-03T10:06:32;100589.47;;;10.17;100.00
43804;BME280;29430;52.924;-2.388;2023-02-03T10:21:50;100581.34;;;10.39;98.19
43804;BME280;29430;52.924;-2.388;2023-02-03T10:26:42;100589.09;;;10.42;98.29
43804;BME280;29430;52.924;-2.388;2023-02-03T10:31:35;100591.88;;;10.49;98.00
43804;BME280;29430;52.924;-2.388;2023-02-03T10:36:56;100599.88;;;10.57;97.71
43804;BME280;29430;52.924;-2.388;2023-02-03T10:41:48;100602.44;;;10.65;96.84
43804;BME280;29430;52.924;-2.388;2023-02-03T10:46:42;100610.44;;;10.73;96.05
43804;BME280;29430;52.924;-2.388;2023-02-03T10:51:51;100620.09;;;10.83;95.68
43804;BME280;29430;52.924;-2.388;2023-02-03T10:56:45;100618.09;;;10.91;95.20
43804;BME280;29430;52.924;-2.388;2023-02-03T11:01:42;100626.53;;;11.03;94.72
43804;BME280;29430;52.924;-2.388;2023-02-03T11:06:35;100626.41;;;11.18;94.31
43804;BME280;29430;52.924;-2.388;2023-02-03T11:11:42;100601.84;;;11.33;93.57
43804;BME280;29430;52.924;-2.388;2023-02-03T11:16:34;100606.69;;;11.44;92.10
43804;BME280;29430;52.924;-2.388;2023-02-03T11:21:41;100598.63;;;11.58;91.41
43804;BME280;29430;52.924;-2.388;2023-02-03T11:26:43;100607.25;;;11.68;90.93
43804;BME280;29430;52.924;-2.388;2023-02-03T11:31:36;100610.66;;;11.83;90.59
43804;BME280;29430;52.924;-2.388;2023-02-03T11:36:30;100613.00;;;12.00;90.05
43804;BME280;29430;52.924;-2.388;2023-02-03T11:41:22;100620.78;;;12.16;88.21
43804;BME280;29430;52.924;-2.388;2023-02-03T11:46:14;100614.53;;;12.29;87.74
43804;BME280;29430;52.924;-2.388;2023-02-03T11:56:31;100634.47;;;12.70;86.85
43804;BME280;29430;52.924;-2.388;2023-02-03T12:21:53;100671.41;;;13.71;79.97
43804;BME280;29430;52.924;-2.388;2023-02-03T12:37:24;100694.44;;;13.89;77.63
43804;BME280;29430;52.924;-2.388;2023-02-03T12:47:29;100684.69;;;13.61;77.92
43804;BME280;29430;52.924;-2.388;2023-02-03T12:52:51;100688.28;;;13.41;77.86
43804;BME280;29430;52.924;-2.388;2023-02-03T12:57:59;100688.25;;;13.28;79.16
43804;BME280;29430;52.924;-2.388;2023-02-03T13:08:24;100688.28;;;13.08;80.33
43804;BME280;29430;52.924;-2.388;2023-02-03T13:13:27;100685.78;;;13.00;79.95
43804;BME280;29430;52.924;-2.388;2023-02-03T13:18:30;100698.13;;;12.96;80.80
43804;BME280;29430;52.924;-2.388;2023-02-03T13:23:24;100696.66;;;12.86;81.32
43804;BME280;29430;52.924;-2.388;2023-02-03T13:33:38;100690.16;;;12.74;82.10
43804;BME280;29430;52.924;-2.388;2023-02-03T13:43:49;100694.94;;;12.59;82.44
43804;BME280;29430;52.924;-2.388;2023-02-03T13:48:43;100705.00;;;12.51;82.27
43804;BME280;29430;52.924;-2.388;2023-02-03T13:53:38;100704.75;;;12.46;82.29
43804;BME280;29430;52.924;-2.388;2023-02-03T13:58:36;100702.66;;;12.42;82.48
43804;BME280;29430;52.924;-2.388;2023-02-03T14:13:19;100690.94;;;12.34;83.38
43804;BME280;29430;52.924;-2.388;2023-02-03T14:18:44;100695.53;;;12.34;83.14
43804;BME280;29430;52.924;-2.388;2023-02-03T14:23:43;100710.81;;;12.28;82.37
43804;BME280;29430;52.924;-2.388;2023-02-03T14:28:39;100708.03;;;12.22;82.17
43804;BME280;29430;52.924;-2.388;2023-02-03T14:38:40;100707.81;;;12.10;82.21
43804;BME280;29430;52.924;-2.388;2023-02-03T14:43:41;100714.47;;;12.07;83.45
43804;BME280;29430;52.924;-2.388;2023-02-03T14:48:50;100707.97;;;12.02;83.52
43804;BME280;29430;52.924;-2.388;2023-02-03T14:54:08;100711.91;;;11.92;83.63
43804;BME280;29430;52.924;-2.388;2023-02-03T14:59:07;100717.47;;;11.84;83.54
43804;BME280;29430;52.924;-2.388;2023-02-03T15:09:15;100740.44;;;11.75;83.98
43804;BME280;29430;52.924;-2.388;2023-02-03T15:14:19;100747.69;;;11.68;84.19
43804;BME280;29430;52.924;-2.388;2023-02-03T15:19:19;100749.56;;;11.60;84.86
43804;BME280;29430;52.924;-2.388;2023-02-03T15:24:15;100746.97;;;11.52;85.67
43804;BME280;29430;52.924;-2.388;2023-02-03T15:29:18;100758.63;;;11.46;85.86
43804;BME280;29430;52.924;-2.388;2023-02-03T15:39:48;100769.53;;;11.24;88.18
43804;BME280;29430;52.924;-2.388;2023-02-03T15:44:55;100760.91;;;11.14;88.81
43804;BME280;29430;52.924;-2.388;2023-02-03T15:49:57;100774.41;;;11.07;89.21
43804;BME280;29430;52.924;-2.388;2023-02-03T15:54:59;100776.88;;;11.02;88.05
43804;BME280;29430;52.924;-2.388;2023-02-03T15:59:59;100781.00;;;10.98;88.22
43804;BME280;29430;52.924;-2.388;2023-02-03T16:04:52;100786.44;;;10.98;88.88
43804;BME280;29430;52.924;-2.388;2023-02-03T16:09:44;100796.06;;;11.01;88.26
43804;BME280;29430;52.924;-2.388;2023-02-03T16:14:36;100796.47;;;10.98;88.52
43804;BME280;29430;52.924;-2.388;2023-02-03T16:19:29;100809.00;;;10.99;88.03
43804;BME280;29430;52.924;-2.388;2023-02-03T16:29:28;100816.47;;;10.97;86.69
43804;BME280;29430;52.924;-2.388;2023-02-03T16:34:38;100820.44;;;10.94;85.63
43804;BME280;29430;52.924;-2.388;2023-02-03T16:39:48;100827.28;;;10.90;85.25
43804;BME280;29430;52.924;-2.388;2023-02-03T16:44:58;100826.66;;;10.88;84.63
43804;BME280;29430;52.924;-2.388;2023-02-03T16:50:21;100840.13;;;10.81;83.28
43804;BME280;29430;52.924;-2.388;2023-02-03T16:55:32;100838.38;;;10.73;81.58
43804;BME280;29430;52.924;-2.388;2023-02-03T17:00:24;100831.19;;;10.66;80.97
43804;BME280;29430;52.924;-2.388;2023-02-03T17:05:16;100842.16;;;10.57;80.31
43804;BME280;29430;52.924;-2.388;2023-02-03T17:10:08;100833.75;;;10.52;80.38
43804;BME280;29430;52.924;-2.388;2023-02-03T17:15:00;100848.91;;;10.47;80.74
43804;BME280;29430;52.924;-2.388;2023-02-03T17:19:52;100848.38;;;10.36;79.82
43804;BME280;29430;52.924;-2.388;2023-02-03T17:24:44;100840.44;;;10.35;81.05
43804;BME280;29430;52.924;-2.388;2023-02-03T17:29:35;100843.31;;;10.33;79.95
43804;BME280;29430;52.924;-2.388;2023-02-03T17:34:28;100858.25;;;10.29;79.93
43804;BME280;29430;52.924;-2.388;2023-02-03T17:39:20;100857.78;;;10.26;80.68
43804;BME280;29430;52.924;-2.388;2023-02-03T17:44:29;100856.47;;;10.21;80.81
43804;BME280;29430;52.924;-2.388;2023-02-03T17:49:39;100860.56;;;10.17;80.17
43804;BME280;29430;52.924;-2.388;2023-02-03T17:54:47;100869.47;;;10.11;78.70
43804;BME280;29430;52.924;-2.388;2023-02-03T17:59:39;100865.09;;;10.10;79.57
43804;BME280;29430;52.924;-2.388;2023-02-03T18:04:31;100883.19;;;10.10;78.92
43804;BME280;29430;52.924;-2.388;2023-02-03T18:09:23;100886.47;;;10.05;78.69
43804;BME280;29430;52.924;-2.388;2023-02-03T18:14:14;100886.00;;;10.01;79.45
43804;BME280;29430;52.924;-2.388;2023-02-03T18:19:09;100885.16;;;10.01;79.23
43804;BME280;29430;52.924;-2.388;2023-02-03T18:24:04;100897.84;;;10.00;80.46
43804;BME280;29430;52.924;-2.388;2023-02-03T18:28:56;100897.84;;;10.00;80.15
43804;BME280;29430;52.924;-2.388;2023-02-03T18:33:48;100902.63;;;9.98;81.39
43804;BME280;29430;52.924;-2.388;2023-02-03T18:38:41;100894.50;;;9.98;81.91
43804;BME280;29430;52.924;-2.388;2023-02-03T18:43:34;100902.00;;;9.96;82.22
43804;BME280;29430;52.924;-2.388;2023-02-03T18:48:25;100896.56;;;9.96;82.05
43804;BME280;29430;52.924;-2.388;2023-02-03T18:53:17;100899.28;;;9.96;82.19
43804;BME280;29430;52.924;-2.388;2023-02-03T18:58:11;100894.88;;;9.95;82.38
43804;BME280;29430;52.924;-2.388;2023-02-03T19:03:03;100902.16;;;9.95;83.19
43804;BME280;29430;52.924;-2.388;2023-02-03T19:07:54;100910.31;;;9.95;83.07
43804;BME280;29430;52.924;-2.388;2023-02-03T19:12:46;100907.59;;;9.95;82.78
43804;BME280;29430;52.924;-2.388;2023-02-03T19:17:38;100914.03;;;9.94;83.53
43804;BME280;29430;52.924;-2.388;2023-02-03T19:22:31;100923.00;;;9.94;83.72
43804;BME280;29430;52.924;-2.388;2023-02-03T19:27:23;100926.38;;;9.96;84.31
43804;BME280;29430;52.924;-2.388;2023-02-03T19:32:15;100923.50;;;9.98;84.24
43804;BME280;29430;52.924;-2.388;2023-02-03T19:37:07;100920.97;;;9.96;83.89
43804;BME280;29430;52.924;-2.388;2023-02-03T19:41:59;100928.22;;;9.96;84.32
43804;BME280;29430;52.924;-2.388;2023-02-03T19:46:51;100915.72;;;9.95;84.51
43804;BME280;29430;52.924;-2.388;2023-02-03T19:51:43;100926.25;;;9.90;83.93
43804;BME280;29430;52.924;-2.388;2023-02-03T19:56:35;100928.31;;;9.88;84.86
43804;BME280;29430;52.924;-2.388;2023-02-03T20:01:27;100931.22;;;9.86;85.17
43804;BME280;29430;52.924;-2.388;2023-02-03T20:06:19;100936.34;;;9.81;85.01
43804;BME280;29430;52.924;-2.388;2023-02-03T20:11:12;100942.78;;;9.80;85.82
43804;BME280;29430;52.924;-2.388;2023-02-03T20:16:04;100942.13;;;9.78;86.61
43804;BME280;29430;52.924;-2.388;2023-02-03T20:20:56;100940.78;;;9.74;86.89
43804;BME280;29430;52.924;-2.388;2023-02-03T20:25:48;100937.63;;;9.70;87.86
43804;BME280;29430;52.924;-2.388;2023-02-03T20:30:40;100933.56;;;9.66;88.52
43804;BME280;29430;52.924;-2.388;2023-02-03T20:35:32;100934.59;;;9.65;89.04
43804;BME280;29430;52.924;-2.388;2023-02-03T20:40:24;100947.31;;;9.64;88.98
43804;BME280;29430;52.924;-2.388;2023-02-03T20:45:20;100950.38;;;9.61;89.31
43804;BME280;29430;52.924;-2.388;2023-02-03T20:50:15;100948.03;;;9.58;89.76
43804;BME280;29430;52.924;-2.388;2023-02-03T20:55:13;100949.22;;;9.56;90.05
43804;BME280;29430;52.924;-2.388;2023-02-03T21:00:21;100951.09;;;9.55;90.88
43804;BME280;29430;52.924;-2.388;2023-02-03T21:05:23;100954.81;;;9.54;91.43
43804;BME280;29430;52.924;-2.388;2023-02-03T21:10:19;100955.00;;;9.53;91.42
43804;BME280;29430;52.924;-2.388;2023-02-03T21:15:26;100962.66;;;9.49;91.58
43804;BME280;29430;52.924;-2.388;2023-02-03T21:20:27;100955.53;;;9.48;91.80
43804;BME280;29430;52.924;-2.388;2023-02-03T21:25:31;100959.94;;;9.49;92.38
43804;BME280;29430;52.924;-2.388;2023-02-03T21:30:26;100962.00;;;9.47;92.60
43804;BME280;29430;52.924;-2.388;2023-02-03T21:35:28;100969.44;;;9.45;92.90
43804;BME280;29430;52.924;-2.388;2023-02-03T21:40:28;100964.56;;;9.40;93.29
43804;BME280;29430;52.924;-2.388;2023-02-03T21:45:21;100967.25;;;9.40;93.80
43804;BME280;29430;52.924;-2.388;2023-02-03T21:50:33;100963.06;;;9.38;93.70
43804;BME280;29430;52.924;-2.388;2023-02-03T21:55:25;100967.97;;;9.34;94.27
43804;BME280;29430;52.924;-2.388;2023-02-03T22:00:39;100971.56;;;9.35;94.49
43804;BME280;29430;52.924;-2.388;2023-02-03T22:05:33;100973.41;;;9.34;94.58
43804;BME280;29430;52.924;-2.388;2023-02-03T22:10:28;100978.81;;;9.34;94.51
43804;BME280;29430;52.924;-2.388;2023-02-03T22:15:20;100976.97;;;9.35;94.08
43804;BME280;29430;52.924;-2.388;2023-02-03T22:20:12;100979.00;;;9.32;95.11
43804;BME280;29430;52.924;-2.388;2023-02-03T22:25:04;100984.59;;;9.31;95.02
43804;BME280;29430;52.924;-2.388;2023-02-03T22:29:56;100984.59;;;9.31;94.47
43804;BME280;29430;52.924;-2.388;2023-02-03T22:34:48;100987.97;;;9.33;95.00
43804;BME280;29430;52.924;-2.388;2023-02-03T22:39:40;100998.13;;;9.31;94.53
43804;BME280;29430;52.924;-2.388;2023-02-03T22:44:32;100995.78;;;9.28;95.08
43804;BME280;29430;52.924;-2.388;2023-02-03T22:49:23;101001.19;;;9.28;95.45
43804;BME280;29430;52.924;-2.388;2023-02-03T22:54:15;101003.41;;;9.24;95.93
43804;BME280;29430;52.924;-2.388;2023-02-03T22:59:07;101015.06;;;9.25;96.19
43804;BME280;29430;52.924;-2.388;2023-02-03T23:03:58;101029.47;;;9.25;96.52
43804;BME280;29430;52.924;-2.388;2023-02-03T23:08:50;101039.63;;;9.23;96.87
43804;BME280;29430;52.924;-2.388;2023-02-03T23:13:43;101041.66;;;9.21;97.26
43804;BME280;29430;52.924;-2.388;2023-02-03T23:18:35;101042.31;;;9.23;97.31
43804;BME280;29430;52.924;-2.388;2023-02-03T23:23:27;101050.28;;;9.25;97.29
43804;BME280;29430;52.924;-2.388;2023-02-03T23:28:18;101054.03;;;9.24;97.20
43804;BME280;29430;52.924;-2.388;2023-02-03T23:33:10;101054.19;;;9.22;97.64
43804;BME280;29430;52.924;-2.388;2023-02-03T23:38:02;101053.50;;;9.20;97.36
43804;BME280;29430;52.924;-2.388;2023-02-03T23:42:54;101055.25;;;9.13;98.46
43804;BME280;29430;52.924;-2.388;2023-02-03T23:47:46;101059.78;;;9.12;98.38
43804;BME280;29430;52.924;-2.388;2023-02-03T23:52:38;101068.09;;;9.11;99.04
43804;BME280;29430;52.924;-2.388;2023-02-03T23:57:30;101071.16;;;9.08;99.23
